Time;durP1;ratioP1;P1;durP2;ratioP2;P2;SDS_P1;SDS_P2;PMS_P1;PMS_P2;Temp;Humidity;BMP_temperature;BMP_pressure;BME280_temperature;BME280_humidity;BME280_pressure;Samples;Min_cycle;Max_cycle;Signal;HPM_P1;HPM_P2
2022/11/07 00:02:04;;;;;;;4.28;2.25;;;10.70;99.90;;;;;;4950411;29;20039;-78
2022/11/07 00:04:31;;;;;;;5.13;2.72;;;10.70;99.90;;;;;;4950780;29;20035;-77
2022/11/07 00:06:57;;;;;;;3.53;2.45;;;10.70;99.90;;;;;;4933560;29;20054;-77
2022/11/07 00:09:23;;;;;;;4.28;2.85;;;10.60;99.90;;;;;;4917475;29;20116;-78
2022/11/07 00:11:49;;;;;;;3.83;2.10;;;10.50;99.90;;;;;;4950617;29;20028;-77
2022/11/07 00:14:16;;;;;;;7.65;2.72;;;10.40;99.90;;;;;;4933394;29;20063;-77
2022/11/07 00:16:46;;;;;;;2.50;2.28;;;10.40;99.90;;;;;;4949681;29;20039;-78
2022/11/07 00:19:15;;;;;;;3.03;1.88;;;10.40;99.90;;;;;;4933109;29;20047;-77
2022/11/07 00:21:41;;;;;;;3.10;2.00;;;10.30;99.90;;;;;;4950366;29;20139;-78
2022/11/07 00:24:08;;;;;;;2.67;1.73;;;10.20;99.90;;;;;;4933135;29;20024;-76
2022/11/07 00:26:34;;;;;;;14.77;3.47;;;10.20;99.90;;;;;;4950438;29;20050;-77
2022/11/07 00:29:00;;;;;;;3.80;2.38;;;10.20;99.90;;;;;;4932793;29;20051;-76
2022/11/07 00:31:26;;;;;;;9.95;1.85;;;10.20;99.90;;;;;;4950248;29;20042;-77
2022/11/07 00:33:52;;;;;;;4.55;2.35;;;10.20;99.90;;;;;;4950243;29;20048;-76
2022/11/07 00:36:20;;;;;;;6.10;2.97;;;10.20;99.90;;;;;;4917216;29;20194;-76
2022/11/07 00:38:46;;;;;;;2.63;1.92;;;10.20;99.90;;;;;;4935716;29;20468;-77
2022/11/07 00:41:12;;;;;;;8.77;2.80;;;10.20;99.90;;;;;;4933041;29;20036;-76
2022/11/07 00:43:38;;;;;;;2.10;1.25;;;10.10;99.90;;;;;;4949515;29;20035;-77
2022/11/07 00:46:07;;;;;;;9.88;3.03;;;10.20;99.90;;;;;;4949641;29;20051;-77
2022/11/07 00:48:33;;;;;;;7.22;2.95;;;10.20;99.90;;;;;;4950059;29;20033;-77
2022/11/07 00:51:10;;;;;;;4.32;1.73;;;10.20;99.90;;;;;;4932513;29;20091;-76
2022/11/07 00:53:36;;;;;;;3.53;3.25;;;10.30;99.90;;;;;;4949724;29;20050;-77
2022/11/07 00:56:09;;;;;;;2.55;1.63;;;10.30;99.90;;;;;;4916960;29;20036;-76
2022/11/07 00:58:35;;;;;;;3.13;2.10;;;10.30;99.90;;;;;;4932789;29;20417;-77
2022/11/07 01:01:09;;;;;;;7.00;2.35;;;10.30;99.90;;;;;;4932514;29;20031;-76
2022/11/07 01:06:20;;;;;;;6.18;3.33;;;10.30;99.90;;;;;;4949585;29;20050;-77
2022/11/07 01:08:46;;;;;;;6.07;2.17;;;10.30;99.90;;;;;;4949763;29;20437;-76
2022/11/07 01:11:12;;;;;;;5.30;2.72;;;10.30;99.90;;;;;;4932187;29;20016;-76
2022/11/07 01:13:38;;;;;;;4.18;2.97;;;10.20;99.90;;;;;;4929887;29;20039;-77
2022/11/07 01:16:04;;;;;;;7.35;2.65;;;10.20;99.90;;;;;;4921141;29;20058;-77
2022/11/07 01:18:30;;;;;;;2.13;1.83;;;10.10;99.90;;;;;;4949363;29;20036;-77
2022/11/07 01:20:56;;;;;;;5.47;2.33;;;10.10;99.90;;;;;;4949295;29;20051;-77
2022/11/07 01:23:21;;;;;;;6.20;1.92;;;10.10;99.90;;;;;;4949220;29;20036;-77
2022/11/07 01:25:48;;;;;;;3.80;2.13;;;10.20;99.90;;;;;;4949190;29;20063;-77
2022/11/07 01:28:14;;;;;;;5.50;4.03;;;10.20;99.90;;;;;;4931925;29;20066;-77
2022/11/07 01:30:41;;;;;;;2.70;1.92;;;10.20;99.90;;;;;;4949454;29;20362;-76
2022/11/07 01:33:08;;;;;;;8.80;2.70;;;10.10;99.90;;;;;;4931712;29;20091;-77
2022/11/07 01:35:35;;;;;;;10.40;2.50;;;10.10;99.90;;;;;;4948693;29;20032;-77
2022/11/07 01:38:01;;;;;;;5.13;2.47;;;9.90;99.90;;;;;;4948906;29;20099;-76
2022/11/07 01:40:28;;;;;;;4.15;2.90;;;10.10;99.90;;;;;;4949041;29;20086;-77
2022/11/07 01:42:53;;;;;;;5.43;2.42;;;10.20;99.90;;;;;;4931810;29;20405;-77
2022/11/07 01:45:26;;;;;;;5.05;3.05;;;10.30;99.90;;;;;;4931484;29;20036;-77
2022/11/07 01:47:55;;;;;;;7.03;2.15;;;10.30;99.90;;;;;;4915911;29;20035;-77
2022/11/07 01:50:21;;;;;;;3.58;1.52;;;10.40;99.90;;;;;;4948744;29;20019;-77
2022/11/07 01:52:49;;;;;;;3.08;2.42;;;10.40;99.90;;;;;;4931794;29;20027;-77
2022/11/07 01:55:23;;;;;;;5.07;2.33;;;10.30;99.90;;;;;;4948301;29;20034;-77
2022/11/07 01:57:51;;;;;;;4.57;2.33;;;10.40;99.90;;;;;;4931659;29;20111;-77
2022/11/07 02:00:20;;;;;;;2.97;2.58;;;10.30;99.90;;;;;;4948619;29;20087;-76
2022/11/07 02:02:49;;;;;;;9.88;2.83;;;10.40;99.90;;;;;;4931605;29;20038;-76
2022/11/07 02:05:26;;;;;;;3.72;2.53;;;10.40;99.90;;;;;;4931318;29;20032;-77
2022/11/07 02:07:52;;;;;;;6.75;2.28;;;10.40;99.90;;;;;;4931474;29;20034;-77
2022/11/07 02:10:19;;;;;;;3.28;2.25;;;10.40;99.90;;;;;;4948586;29;20040;-76
2022/11/07 02:12:45;;;;;;;4.07;1.95;;;10.40;99.90;;;;;;4931543;29;20032;-77
2022/11/07 02:15:11;;;;;;;5.50;3.08;;;10.50;99.90;;;;;;4931114;29;20046;-76
2022/11/07 02:17:37;;;;;;;4.03;2.80;;;10.50;99.90;;;;;;4948112;29;20063;-77
2022/11/07 02:20:03;;;;;;;11.38;2.95;;;10.50;99.90;;;;;;4948502;29;20032;-77
2022/11/07 02:22:54;;;;;;;5.25;2.13;;;10.50;99.90;;;;;;4948331;29;20055;-77
2022/11/07 02:25:20;;;;;;;13.60;2.42;;;10.50;99.90;;;;;;4948215;29;20433;-77
2022/11/07 02:27:50;;;;;;;6.32;3.22;;;10.40;99.90;;;;;;4931225;29;20031;-77
2022/11/07 02:30:19;;;;;;;4.10;1.98;;;10.30;99.90;;;;;;4931434;29;20051;-77
2022/11/07 02:32:45;;;;;;;2.33;1.73;;;10.30;99.90;;;;;;4948165;29;20028;-76
2022/11/07 02:35:36;;;;;;;5.32;3.60;;;10.30;99.90;;;;;;4930938;29;20038;-76
2022/11/07 02:38:22;;;;;;;4.88;2.60;;;10.20;99.90;;;;;;4947738;29;20114;-76
2022/11/07 02:41:04;;;;;;;3.70;1.90;;;10.10;99.90;;;;;;4951362;29;20036;-76
2022/11/07 02:43:31;;;;;;;4.43;2.95;;;10.10;99.90;;;;;;4934948;29;20039;-77
2022/11/07 02:46:01;;;;;;;4.00;3.15;;;10.10;99.90;;;;;;4952365;29;20043;-77
2022/11/07 02:48:29;;;;;;;10.95;2.03;;;10.20;99.90;;;;;;4952025;29;20384;-76
2022/11/07 02:50:55;;;;;;;8.70;2.50;;;10.20;99.90;;;;;;4934840;29;20032;-76
2022/11/07 02:53:20;;;;;;;10.05;2.58;;;10.20;99.90;;;;;;4952245;29;20034;-76
2022/11/07 02:55:46;;;;;;;4.15;2.95;;;10.20;99.90;;;;;;4934958;29;20389;-77
2022/11/07 02:58:12;;;;;;;7.70;4.18;;;10.20;99.90;;;;;;4915651;29;20062;-76
2022/11/07 03:00:38;;;;;;;11.93;2.30;;;10.20;99.90;;;;;;4932921;29;20032;-76
2022/11/07 03:03:04;;;;;;;4.47;1.83;;;10.20;99.90;;;;;;4915657;29;20482;-77
2022/11/07 03:05:29;;;;;;;3.00;1.98;;;10.10;99.90;;;;;;4931527;29;20036;-77
2022/11/07 03:07:55;;;;;;;3.15;1.92;;;10.10;99.90;;;;;;4941642;29;20035;-77
2022/11/07 03:10:21;;;;;;;7.28;3.85;;;10.30;99.90;;;;;;4951590;29;20031;-77
2022/11/07 03:12:47;;;;;;;10.60;3.70;;;10.30;99.90;;;;;;4934442;29;20034;-77
2022/11/07 03:15:13;;;;;;;2.83;2.40;;;10.30;99.90;;;;;;4934645;29;20032;-77
2022/11/07 03:17:39;;;;;;;3.38;2.42;;;10.40;99.90;;;;;;4918416;29;20087;-77
2022/11/07 03:20:06;;;;;;;4.10;2.65;;;10.40;99.90;;;;;;4934265;29;20040;-77
2022/11/07 03:22:31;;;;;;;3.03;1.80;;;10.50;99.90;;;;;;4951621;29;20032;-77
2022/11/07 03:24:57;;;;;;;10.93;3.50;;;10.50;99.90;;;;;;4951466;29;20031;-77
2022/11/07 03:27:23;;;;;;;8.98;3.45;;;10.40;99.90;;;;;;4934090;29;20032;-77
2022/11/07 03:29:49;;;;;;;5.78;3.08;;;10.40;99.90;;;;;;4951389;29;20112;-77
2022/11/07 03:32:15;;;;;;;6.93;2.50;;;10.40;99.90;;;;;;4951342;29;20040;-77
2022/11/07 03:34:41;;;;;;;4.88;2.53;;;10.40;99.90;;;;;;4951334;29;20039;-77
2022/11/07 03:37:07;;;;;;;4.68;2.80;;;10.50;99.90;;;;;;4933999;29;20027;-77
2022/11/07 03:39:33;;;;;;;14.18;3.50;;;10.40;99.90;;;;;;4950713;29;20043;-77
2022/11/07 03:41:59;;;;;;;13.23;3.70;;;10.50;99.90;;;;;;4951294;29;20397;-77
2022/11/07 03:44:24;;;;;;;8.55;2.45;;;10.50;99.90;;;;;;4933758;29;20046;-77
2022/11/07 03:46:50;;;;;;;7.00;3.58;;;10.50;99.90;;;;;;4933908;29;20020;-77
2022/11/07 03:49:16;;;;;;;6.22;2.08;;;10.60;99.90;;;;;;4950751;29;20032;-77
2022/11/07 03:51:42;;;;;;;3.45;2.00;;;10.50;99.90;;;;;;4949786;29;20043;-76
2022/11/07 03:54:07;;;;;;;3.70;2.30;;;10.50;99.90;;;;;;4933691;29;20034;-77
2022/11/07 03:56:33;;;;;;;3.08;1.38;;;10.50;99.90;;;;;;4933928;29;20032;-77
2022/11/07 03:58:59;;;;;;;5.57;2.10;;;10.50;99.90;;;;;;4950458;29;20047;-76
2022/11/07 04:01:24;;;;;;;10.02;2.10;;;10.60;99.90;;;;;;4933662;29;20095;-76
2022/11/07 04:03:50;;;;;;;12.35;4.35;;;10.60;99.90;;;;;;4933877;29;20043;-77
2022/11/07 04:06:17;;;;;;;8.98;2.80;;;10.50;99.90;;;;;;4950610;29;20063;-77
2022/11/07 04:08:43;;;;;;;5.13;1.70;;;10.50;99.90;;;;;;4933409;29;20038;-77
2022/11/07 04:17:17;;;;;;;10.45;4.20;;;10.50;99.90;;;;;;4933413;29;20126;-76
2022/11/07 04:19:25;;;;;;;4.28;3.15;;;10.40;99.90;;;;;;4950348;29;20386;-76
2022/11/07 04:21:51;;;;;;;5.03;2.88;;;10.50;99.90;;;;;;4933738;29;20043;-77
2022/11/07 04:24:16;;;;;;;6.28;2.33;;;10.40;99.90;;;;;;4933424;29;20040;-76
2022/11/07 04:29:26;;;;;;;5.50;3.05;;;10.50;99.90;;;;;;4950206;29;20039;-76
2022/11/07 04:31:52;;;;;;;9.55;3.33;;;10.60;99.90;;;;;;4950269;29;20059;-76
2022/11/07 04:34:18;;;;;;;4.65;2.75;;;10.60;99.90;;;;;;4933063;29;20064;-77
2022/11/07 04:36:43;;;;;;;5.57;4.57;;;10.60;99.90;;;;;;4950028;29;20031;-76
2022/11/07 04:39:09;;;;;;;7.22;3.85;;;10.60;99.90;;;;;;4932740;29;20056;-76
2022/11/07 04:41:35;;;;;;;4.75;2.03;;;10.60;99.90;;;;;;4932858;29;20032;-77
2022/11/07 04:44:01;;;;;;;6.43;3.70;;;10.50;99.90;;;;;;4933044;29;20023;-77
2022/11/07 04:46:27;;;;;;;11.82;4.93;;;10.50;99.90;;;;;;4949673;29;20507;-77
2022/11/07 04:48:52;;;;;;;7.25;2.92;;;10.50;99.90;;;;;;4950018;29;20046;-77
2022/11/07 04:51:20;;;;;;;6.32;4.55;;;10.50;99.90;;;;;;4932595;29;20130;-77
2022/11/07 04:53:46;;;;;;;12.43;3.28;;;10.50;99.90;;;;;;4932895;29;20467;-77
2022/11/07 04:56:13;;;;;;;4.88;2.28;;;10.60;99.90;;;;;;4932966;29;20032;-77
2022/11/07 04:58:38;;;;;;;5.93;3.42;;;10.50;99.90;;;;;;4949311;29;20035;-77
2022/11/07 05:01:04;;;;;;;6.38;1.63;;;10.50;99.90;;;;;;4949768;29;20028;-77
2022/11/07 05:03:30;;;;;;;12.18;3.83;;;10.60;99.90;;;;;;4949339;29;20059;-77
2022/11/07 05:05:56;;;;;;;4.28;3.08;;;10.70;99.90;;;;;;4949546;29;20043;-77
2022/11/07 05:08:22;;;;;;;5.80;2.22;;;10.70;99.90;;;;;;4949035;29;20047;-77
2022/11/07 05:10:47;;;;;;;5.28;2.78;;;10.80;99.90;;;;;;4949554;29;20031;-77
2022/11/07 05:13:13;;;;;;;10.55;3.42;;;10.80;99.90;;;;;;4949477;29;20036;-77
2022/11/07 05:15:39;;;;;;;8.55;3.33;;;10.90;99.90;;;;;;4931388;29;20106;-77
2022/11/07 05:18:05;;;;;;;6.05;3.10;;;10.90;99.90;;;;;;4931725;29;20027;-77
2022/11/07 05:20:34;;;;;;;9.10;2.42;;;10.90;99.90;;;;;;4931987;29;20122;-77
2022/11/07 05:23:21;;;;;;;8.55;2.92;;;10.90;99.90;;;;;;4949200;29;20066;-78
2022/11/07 05:25:48;;;;;;;10.65;2.75;;;10.90;99.90;;;;;;4948829;29;20044;-77
2022/11/07 05:28:18;;;;;;;7.85;2.65;;;11.00;99.90;;;;;;4930140;29;20028;-78
2022/11/07 05:30:45;;;;;;;8.70;2.90;;;11.00;99.90;;;;;;4930064;29;20076;-78
2022/11/07 05:33:13;;;;;;;10.55;2.45;;;11.10;99.90;;;;;;4930165;29;20042;-78
2022/11/07 05:35:40;;;;;;;8.85;3.55;;;11.00;99.90;;;;;;4930000;29;20028;-77
2022/11/07 05:38:06;;;;;;;6.50;3.70;;;11.10;99.90;;;;;;4942128;29;20024;-77
2022/11/07 05:40:34;;;;;;;6.10;2.78;;;11.10;99.90;;;;;;4939821;29;20083;-77
2022/11/07 05:43:11;;;;;;;9.63;2.55;;;11.10;99.90;;;;;;4948059;29;20028;-77
2022/11/07 05:45:39;;;;;;;6.40;1.83;;;11.10;99.90;;;;;;4948364;29;20063;-77
2022/11/07 05:48:11;;;;;;;8.40;2.72;;;11.10;99.90;;;;;;4931203;29;20032;-77
2022/11/07 05:50:38;;;;;;;3.22;2.85;;;10.90;99.90;;;;;;4931070;29;20027;-77
2022/11/07 05:53:04;;;;;;;6.43;3.65;;;11.00;99.90;;;;;;4930838;29;20032;-76
2022/11/07 05:55:30;;;;;;;4.45;2.25;;;11.00;99.90;;;;;;4912354;29;20024;-76
2022/11/07 05:57:56;;;;;;;12.45;3.10;;;11.10;99.90;;;;;;4923496;29;20195;-76
2022/11/07 06:00:22;;;;;;;8.50;3.25;;;11.10;99.90;;;;;;4915660;29;20497;-77
2022/11/07 06:02:56;;;;;;;9.20;3.05;;;11.20;99.90;;;;;;4934192;29;20027;-77
2022/11/07 06:05:23;;;;;;;7.25;2.45;;;11.20;99.90;;;;;;4915255;29;20042;-77
2022/11/07 06:07:48;;;;;;;4.63;2.65;;;11.20;99.90;;;;;;4909132;29;20072;-77
2022/11/07 06:10:14;;;;;;;3.45;2.00;;;11.10;99.90;;;;;;4906315;29;20111;-76
2022/11/07 06:12:40;;;;;;;9.52;4.57;;;11.20;99.90;;;;;;4941824;29;20024;-76
2022/11/07 06:15:06;;;;;;;9.55;2.78;;;11.10;99.90;;;;;;4947383;29;20032;-77
2022/11/07 06:17:32;;;;;;;13.93;2.97;;;11.10;99.90;;;;;;4899152;29;20032;-77
2022/11/07 06:19:58;;;;;;;6.30;3.35;;;11.10;99.90;;;;;;4902657;29;20119;-77
2022/11/07 06:22:24;;;;;;;8.55;4.68;;;11.10;99.90;;;;;;4946761;29;20457;-77
2022/11/07 06:24:50;;;;;;;5.47;3.92;;;11.10;99.90;;;;;;4911485;29;20096;-77
2022/11/07 06:27:16;;;;;;;6.47;3.17;;;11.00;99.90;;;;;;4930358;29;20411;-78
2022/11/07 06:29:42;;;;;;;7.88;3.65;;;11.10;99.90;;;;;;4915084;29;20047;-77
2022/11/07 06:32:08;;;;;;;12.80;4.13;;;11.00;99.90;;;;;;4914442;29;20019;-78
2022/11/07 06:34:34;;;;;;;2.50;2.00;;;11.10;99.90;;;;;;4929911;29;20035;-77
2022/11/07 06:36:59;;;;;;;9.73;2.67;;;11.10;99.90;;;;;;4931257;29;20063;-78
2022/11/07 06:39:25;;;;;;;8.95;3.05;;;11.10;99.90;;;;;;4946967;29;20045;-78
2022/11/07 06:41:51;;;;;;;8.73;3.55;;;11.20;99.90;;;;;;4930021;29;20028;-77
2022/11/07 06:44:17;;;;;;;6.82;2.38;;;11.30;99.90;;;;;;4945076;29;20115;-78
2022/11/07 06:46:46;;;;;;;5.38;1.75;;;11.30;99.90;;;;;;4912792;29;20044;-76
2022/11/07 06:49:14;;;;;;;6.47;3.13;;;11.40;99.90;;;;;;4914450;29;20389;-78
2022/11/07 06:51:40;;;;;;;12.50;3.60;;;11.50;99.90;;;;;;4947729;29;20051;-78
2022/11/07 06:54:06;;;;;;;8.88;3.17;;;11.60;99.90;;;;;;4946578;29;20031;-76
2022/11/07 06:56:32;;;;;;;5.75;3.33;;;11.70;99.90;;;;;;4948401;29;20500;-77
2022/11/07 06:58:58;;;;;;;4.10;2.35;;;11.70;99.90;;;;;;4946936;29;20032;-77
2022/11/07 07:01:24;;;;;;;8.02;2.53;;;11.70;99.90;;;;;;4946198;29;20103;-77
2022/11/07 07:03:50;;;;;;;7.70;2.55;;;11.70;99.90;;;;;;4946520;29;20027;-76
2022/11/07 07:06:16;;;;;;;12.07;2.67;;;11.70;99.90;;;;;;4927041;29;20039;-76
2022/11/07 07:08:43;;;;;;;7.80;3.38;;;11.70;99.90;;;;;;4947169;29;20028;-76
2022/11/07 07:11:11;;;;;;;6.65;3.53;;;11.80;99.90;;;;;;4947180;29;20103;-76
2022/11/07 07:13:37;;;;;;;15.85;3.72;;;11.80;99.90;;;;;;4947501;29;20052;-76
2022/11/07 07:16:04;;;;;;;6.75;3.28;;;11.80;99.90;;;;;;4914750;29;20035;-76
2022/11/07 07:18:30;;;;;;;4.18;2.40;;;11.80;99.90;;;;;;4930286;29;20036;-77
2022/11/07 07:21:10;;;;;;;10.13;2.55;;;11.90;99.90;;;;;;4933599;29;20023;-74
2022/11/07 07:23:37;;;;;;;8.02;4.70;;;12.00;99.90;;;;;;4945150;29;20046;-77
2022/11/07 07:26:05;;;;;;;14.50;3.45;;;12.00;99.90;;;;;;4962674;28;20019;-76
2022/11/07 07:28:32;;;;;;;13.30;2.22;;;11.90;99.90;;;;;;4929048;29;20031;-74
2022/11/07 07:31:12;;;;;;;2.47;1.73;;;12.00;99.90;;;;;;4970549;29;20089;-76
2022/11/07 07:33:39;;;;;;;14.15;2.38;;;12.00;99.90;;;;;;4950905;29;20119;-78
2022/11/07 07:36:05;;;;;;;6.10;2.40;;;12.00;99.90;;;;;;4952906;29;20043;-77
2022/11/07 07:38:31;;;;;;;5.22;2.20;;;11.70;99.90;;;;;;4969838;29;20105;-75
2022/11/07 07:40:58;;;;;;;4.53;2.33;;;12.10;99.90;;;;;;4970262;29;20031;-76
2022/11/07 07:43:26;;;;;;;5.88;2.35;;;12.10;99.90;;;;;;4970009;29;20058;-75
2022/11/07 07:45:52;;;;;;;14.73;3.42;;;12.10;99.90;;;;;;4959744;29;20036;-77
2022/11/07 07:48:18;;;;;;;9.43;3.72;;;12.20;99.90;;;;;;4950033;29;20090;-77
2022/11/07 07:50:47;;;;;;;6.13;2.25;;;12.20;99.90;;;;;;4949818;29;20501;-77
2022/11/07 07:53:13;;;;;;;8.03;2.73;;;12.20;99.90;;;;;;4940382;29;20034;-78
2022/11/07 07:55:39;;;;;;;17.27;7.38;;;12.20;99.90;;;;;;4932843;29;20393;-78
2022/11/07 07:58:04;;;;;;;5.38;3.22;;;12.30;99.90;;;;;;4950150;29;20091;-78
2022/11/07 08:00:30;;;;;;;10.38;4.05;;;12.40;99.90;;;;;;4932898;29;20086;-77
2022/11/07 08:03:05;;;;;;;31.65;25.02;;;12.50;99.90;;;;;;4932465;29;20035;-77
2022/11/07 08:05:30;;;;;;;13.52;6.82;;;12.50;99.90;;;;;;4933084;29;20031;-77
2022/11/07 08:07:56;;;;;;;18.48;6.65;;;12.50;99.90;;;;;;4949497;29;20031;-77
2022/11/07 08:10:22;;;;;;;9.07;3.78;;;12.40;99.90;;;;;;4950462;29;20536;-77
2022/11/07 08:12:49;;;;;;;9.88;3.45;;;12.50;99.90;;;;;;4932815;29;20031;-77
2022/11/07 08:15:16;;;;;;;5.13;4.63;;;12.50;99.90;;;;;;4932835;29;20036;-77
2022/11/07 08:17:42;;;;;;;21.73;13.05;;;12.40;99.90;;;;;;4933104;29;20027;-77
2022/11/07 08:20:10;;;;;;;12.00;5.55;;;12.50;99.90;;;;;;4916286;29;20032;-77
2022/11/07 08:22:36;;;;;;;7.88;5.60;;;12.40;99.90;;;;;;4949710;29;20024;-77
2022/11/07 08:25:03;;;;;;;6.35;2.67;;;12.40;99.90;;;;;;4949975;29;20162;-77
2022/11/07 08:27:30;;;;;;;7.88;5.47;;;12.50;99.90;;;;;;4933083;29;20032;-77
2022/11/07 08:29:56;;;;;;;6.40;3.33;;;12.60;99.90;;;;;;4949942;29;20027;-77
2022/11/07 08:32:23;;;;;;;13.75;6.88;;;12.70;99.90;;;;;;4949726;29;20046;-77
2022/11/07 08:34:49;;;;;;;10.60;6.18;;;12.80;99.90;;;;;;4932900;29;20032;-77
2022/11/07 08:37:15;;;;;;;18.20;6.38;;;12.80;99.90;;;;;;4931400;29;20024;-77
2022/11/07 08:39:40;;;;;;;7.28;5.15;;;12.80;99.90;;;;;;4949833;29;20055;-77
2022/11/07 08:42:06;;;;;;;14.30;4.53;;;12.90;99.90;;;;;;4932662;29;20054;-75
2022/11/07 08:44:35;;;;;;;9.93;3.13;;;12.90;99.90;;;;;;4949416;29;20036;-78
2022/11/07 08:47:02;;;;;;;8.15;4.93;;;12.90;99.90;;;;;;4949335;29;20027;-77
2022/11/07 08:49:28;;;;;;;19.02;11.00;;;13.00;99.90;;;;;;4949730;29;20078;-77
2022/11/07 08:51:54;;;;;;;12.88;6.43;;;13.00;99.90;;;;;;4949478;29;20091;-78
2022/11/07 08:54:20;;;;;;;27.73;16.08;;;13.10;99.90;;;;;;4949868;29;20031;-77
2022/11/07 08:56:46;;;;;;;16.98;7.97;;;13.10;99.90;;;;;;4948826;29;20035;-77
2022/11/07 08:59:13;;;;;;;9.88;4.78;;;13.00;99.90;;;;;;4932231;29;20039;-77
2022/11/07 09:01:39;;;;;;;42.13;17.77;;;13.00;99.90;;;;;;4949544;29;20039;-78
2022/11/07 09:04:05;;;;;;;21.30;10.00;;;13.00;99.90;;;;;;4932411;29;20036;-76
2022/11/07 09:06:33;;;;;;;14.02;5.72;;;13.00;99.90;;;;;;4914587;29;20040;-78
2022/11/07 09:15:00;;;;;;;26.17;12.73;;;13.00;99.90;;;;;;4967934;29;20031;-78
2022/11/07 09:17:26;;;;;;;17.08;11.13;;;13.00;99.90;;;;;;4953184;29;20047;-77
2022/11/07 09:19:52;;;;;;;36.40;20.50;;;13.00;99.90;;;;;;4916073;29;20019;-77
2022/11/07 09:22:18;;;;;;;21.77;10.80;;;12.90;99.90;;;;;;4931596;29;20036;-78
2022/11/07 09:24:44;;;;;;;57.88;27.70;;;12.90;99.90;;;;;;4949091;29;20027;-78
2022/11/07 09:27:10;;;;;;;11.57;5.18;;;13.00;99.90;;;;;;4948666;29;20042;-77
2022/11/07 09:29:36;;;;;;;13.48;4.10;;;13.00;99.90;;;;;;4931566;29;20040;-77
2022/11/07 09:32:02;;;;;;;10.50;3.95;;;13.10;99.90;;;;;;4931498;29;20039;-77
2022/11/07 09:34:27;;;;;;;6.38;4.60;;;13.10;99.90;;;;;;4931133;29;20024;-77
2022/11/07 09:36:53;;;;;;;9.95;4.70;;;13.10;99.90;;;;;;4931864;29;20042;-77
2022/11/07 09:39:19;;;;;;;10.52;4.20;;;13.20;99.90;;;;;;4948560;29;20051;-77
2022/11/07 09:42:18;;;;;;;7.32;3.00;;;13.20;99.90;;;;;;4948444;29;20103;-78
2022/11/07 09:44:56;;;;;;;35.30;9.98;;;13.30;99.90;;;;;;4948381;29;20032;-77
2022/11/07 09:47:39;;;;;;;8.77;4.53;;;13.40;99.90;;;;;;4948609;29;20044;-77
2022/11/07 09:50:26;;;;;;;21.83;10.93;;;13.50;99.90;;;;;;4931012;29;20027;-77
2022/11/07 09:52:57;;;;;;;12.63;7.18;;;13.50;99.90;;;;;;4912272;29;20028;-78
2022/11/07 09:55:28;;;;;;;9.48;5.82;;;13.50;99.90;;;;;;4928975;29;20032;-78
2022/11/07 09:57:59;;;;;;;21.58;4.90;;;13.50;99.90;;;;;;4931611;29;20059;-77
2022/11/07 10:00:29;;;;;;;14.75;9.63;;;13.50;99.90;;;;;;4948507;29;20091;-76
2022/11/07 10:02:57;;;;;;;9.95;4.05;;;13.60;99.90;;;;;;4930506;29;20460;-76
2022/11/07 10:09:29;;;;;;;11.57;3.00;;;13.90;99.90;;;;;;4944085;29;20106;-76
2022/11/07 10:12:15;;;;;;;8.90;3.10;;;14.00;99.90;;;;;;4948188;29;20035;-76
2022/11/07 10:14:53;;;;;;;10.52;4.13;;;14.20;99.90;;;;;;4930657;29;20039;-77
2022/11/07 10:17:37;;;;;;;11.00;4.07;;;14.40;99.90;;;;;;4929277;29;20038;-77
2022/11/07 10:20:22;;;;;;;14.25;4.72;;;14.60;99.90;;;;;;4940057;29;20031;-76
2022/11/07 10:23:05;;;;;;;20.45;2.90;;;14.60;99.90;;;;;;4942504;29;20027;-76
2022/11/07 10:25:47;;;;;;;7.53;3.13;;;14.70;99.90;;;;;;4930758;29;20036;-76
2022/11/07 10:28:15;;;;;;;9.38;4.78;;;14.80;99.90;;;;;;4947514;29;20042;-76
2022/11/07 10:30:52;;;;;;;6.28;4.85;;;15.20;99.90;;;;;;4948272;29;20469;-76
2022/11/07 10:33:48;;;;;;;13.48;3.95;;;15.40;99.90;;;;;;4947764;29;20036;-76
2022/11/07 10:36:22;;;;;;;9.95;3.53;;;15.60;99.90;;;;;;4930099;29;20132;-76
2022/11/07 10:38:48;;;;;;;13.60;2.50;;;15.60;99.90;;;;;;4930348;29;20048;-76
2022/11/07 10:41:26;;;;;;;10.57;2.58;;;15.80;99.90;;;;;;4930839;29;20043;-76
2022/11/07 10:44:20;;;;;;;7.00;2.90;;;16.30;99.90;;;;;;4929664;29;20091;-76
2022/11/07 10:46:46;;;;;;;8.13;2.78;;;16.70;99.90;;;;;;4930707;29;20106;-76
2022/11/07 10:49:26;;;;;;;10.25;3.63;;;17.40;99.90;;;;;;4947905;29;20032;-76
2022/11/07 10:51:53;;;;;;;12.00;4.28;;;17.40;99.90;;;;;;4948098;29;20046;-76
2022/11/07 10:54:26;;;;;;;8.48;2.38;;;17.40;99.90;;;;;;4929857;29;20039;-75
2022/11/07 10:57:14;;;;;;;6.20;3.28;;;17.10;99.90;;;;;;4947080;29;20023;-76
2022/11/07 10:59:57;;;;;;;7.90;2.17;;;17.00;99.90;;;;;;4914938;29;20036;-77
2022/11/07 11:02:26;;;;;;;9.80;1.88;;;17.00;99.90;;;;;;4951602;29;20094;-76
2022/11/07 11:05:03;;;;;;;7.28;2.17;;;16.70;99.90;;;;;;4951124;29;20385;-78
2022/11/07 11:07:35;;;;;;;7.55;3.65;;;16.70;99.90;;;;;;4951052;29;20028;-78
2022/11/07 11:10:16;;;;;;;14.88;11.70;;;17.00;99.90;;;;;;4933928;29;20032;-76
2022/11/07 11:12:46;;;;;;;6.85;4.80;;;17.00;99.90;;;;;;4951542;29;20035;-77
2022/11/07 11:15:15;;;;;;;5.38;2.85;;;16.90;99.90;;;;;;4951309;29;20051;-76
2022/11/07 11:17:43;;;;;;;13.38;3.75;;;16.90;99.90;;;;;;4951099;29;20056;-76
2022/11/07 11:20:31;;;;;;;8.80;3.75;;;16.80;99.90;;;;;;4934032;29;20047;-77
2022/11/07 11:22:58;;;;;;;9.80;2.83;;;16.80;99.90;;;;;;4950887;29;20062;-76
2022/11/07 11:25:25;;;;;;;7.03;2.58;;;16.60;99.90;;;;;;4933612;29;20509;-76
2022/11/07 11:27:58;;;;;;;8.20;2.30;;;16.30;99.90;;;;;;4951252;29;20039;-77
2022/11/07 11:30:24;;;;;;;9.68;2.05;;;16.10;99.90;;;;;;4934462;29;20482;-77
2022/11/07 11:32:50;;;;;;;7.55;2.35;;;16.20;99.90;;;;;;4951204;29;20102;-77
2022/11/07 11:35:41;;;;;;;12.05;3.10;;;16.30;99.90;;;;;;4932757;29;20063;-77
2022/11/07 11:38:20;;;;;;;7.07;2.60;;;16.60;99.90;;;;;;4933456;29;20059;-77
2022/11/07 11:40:55;;;;;;;4.82;2.33;;;16.40;99.90;;;;;;4950833;29;20036;-75
2022/11/07 11:43:24;;;;;;;8.75;2.65;;;16.20;99.90;;;;;;4950733;29;20024;-78
2022/11/07 11:46:07;;;;;;;5.68;2.78;;;15.90;99.90;;;;;;4950527;29;20032;-77
2022/11/07 11:48:40;;;;;;;12.20;2.40;;;15.90;99.90;;;;;;4933801;29;20109;-76
2022/11/07 11:51:27;;;;;;;6.32;2.70;;;15.80;99.90;;;;;;4950830;29;20521;-76
2022/11/07 11:53:53;;;;;;;7.90;2.45;;;15.80;99.90;;;;;;4932663;29;20099;-76
2022/11/07 11:56:28;;;;;;;14.73;3.40;;;15.70;99.90;;;;;;4950258;29;20083;-76
2022/11/07 11:59:27;;;;;;;3.35;2.28;;;15.60;99.90;;;;;;4933369;29;20039;-76
2022/11/07 12:02:03;;;;;;;2.35;2.15;;;15.50;99.90;;;;;;4908383;29;20040;-76
2022/11/07 12:05:00;;;;;;;11.40;2.88;;;15.50;99.90;;;;;;4950043;29;20044;-76
2022/11/07 12:07:25;;;;;;;4.78;2.45;;;15.40;99.90;;;;;;4933282;29;20064;-76
2022/11/07 12:10:06;;;;;;;6.78;2.97;;;15.30;99.90;;;;;;4917625;29;20028;-77
2022/11/07 12:12:32;;;;;;;10.45;3.03;;;15.30;99.90;;;;;;4948352;29;20031;-76
2022/11/07 12:15:19;;;;;;;5.40;2.55;;;15.30;99.90;;;;;;4931624;29;20031;-76
2022/11/07 12:18:01;;;;;;;8.55;2.05;;;15.20;99.90;;;;;;4931918;29;20036;-76
2022/11/07 12:20:58;;;;;;;11.30;3.80;;;15.20;99.90;;;;;;4932634;29;20077;-76
2022/11/07 12:23:40;;;;;;;4.20;2.10;;;15.10;99.90;;;;;;4931177;29;20439;-77
2022/11/07 12:26:19;;;;;;;6.10;2.55;;;15.00;99.90;;;;;;4931320;29;20042;-77
2022/11/07 12:29:16;;;;;;;2.30;1.10;;;15.00;99.90;;;;;;4930800;29;20044;-77
2022/11/07 12:32:07;;;;;;;6.07;2.92;;;15.10;99.90;;;;;;4922891;29;20032;-77
2022/11/07 12:34:51;;;;;;;5.00;3.25;;;15.30;99.90;;;;;;4950222;29;20110;-77
2022/11/07 12:37:36;;;;;;;4.93;1.83;;;15.30;99.90;;;;;;4949943;29;20059;-77
2022/11/07 12:40:11;;;;;;;10.57;3.42;;;15.30;99.90;;;;;;4932171;29;20059;-77
2022/11/07 12:42:46;;;;;;;8.60;3.25;;;15.30;99.90;;;;;;4949531;29;20127;-78
2022/11/07 12:45:45;;;;;;;6.07;2.63;;;15.40;99.90;;;;;;4932778;29;20038;-75
2022/11/07 12:48:23;;;;;;;10.02;3.08;;;15.50;99.90;;;;;;4949155;29;20046;-78
2022/11/07 12:51:37;;;;;;;13.02;5.47;;;15.40;99.90;;;;;;4947781;29;20429;-78
2022/11/07 12:54:27;;;;;;;5.03;1.98;;;15.40;99.90;;;;;;4949297;29;20169;-77
2022/11/07 12:56:56;;;;;;;7.30;2.58;;;15.40;99.90;;;;;;4931793;29;20450;-77
2022/11/07 12:59:29;;;;;;;6.57;4.28;;;15.50;99.90;;;;;;4948625;29;20038;-77
2022/11/07 13:02:14;;;;;;;8.43;2.70;;;15.60;99.90;;;;;;4949641;29;20136;-77
2022/11/07 13:05:13;;;;;;;11.48;3.42;;;15.60;99.90;;;;;;4949426;29;20055;-77
2022/11/07 13:07:47;;;;;;;5.75;2.25;;;15.60;99.90;;;;;;4947886;29;20059;-78
2022/11/07 13:10:33;;;;;;;3.58;1.42;;;15.40;99.90;;;;;;4945179;29;20151;-78
2022/11/07 13:13:05;;;;;;;6.75;1.70;;;15.30;99.90;;;;;;4931836;29;20031;-77
2022/11/07 13:15:31;;;;;;;7.20;2.38;;;15.20;99.90;;;;;;4949225;29;20054;-77
2022/11/07 13:17:57;;;;;;;6.93;1.80;;;15.10;99.90;;;;;;4949127;29;20024;-77
2022/11/07 13:20:29;;;;;;;8.90;3.17;;;15.10;99.90;;;;;;4932165;29;20046;-77